createdAt,value
2018-09-06T00:01:08.849Z,14.77
2018-09-06T00:03:37.359Z,17.17
2018-09-06T00:06:06.069Z,16.80
2018-09-06T00:08:34.633Z,17.20
2018-09-06T00:11:03.415Z,19.43
2018-09-06T00:13:31.913Z,16.23
2018-09-06T00:16:00.341Z,15.87
2018-09-06T00:18:28.986Z,16.20
2018-09-06T00:20:57.487Z,18.80
2018-09-06T00:23:26.026Z,15.77
2018-09-06T00:25:54.868Z,15.93
2018-09-06T00:28:23.356Z,16.13
2018-09-06T00:30:51.860Z,16.60
2018-09-06T00:33:20.559Z,21.90
2018-09-06T00:35:49.112Z,17.47
2018-09-06T00:38:17.576Z,16.73
2018-09-06T00:40:46.377Z,26.70
2018-09-06T00:43:14.900Z,18.03
2018-09-06T00:45:43.348Z,17.77
2018-09-06T00:48:11.818Z,18.07
2018-09-06T00:50:40.858Z,21.93
2018-09-06T00:53:09.362Z,25.67
2018-09-06T00:55:38.007Z,17.87
2018-09-06T00:58:06.458Z,18.43
2018-09-06T01:00:35.035Z,17.90
2018-09-06T01:03:03.812Z,15.93
2018-09-06T01:05:32.387Z,17.80
2018-09-06T01:08:00.834Z,22.50
2018-09-06T01:10:29.647Z,21.47
2018-09-06T01:12:58.147Z,22.53
2018-09-06T01:15:26.603Z,17.43
2018-09-06T01:17:55.990Z,17.80
2018-09-06T01:20:24.471Z,20.90
2018-09-06T01:22:52.954Z,20.83
2018-09-06T01:25:22.226Z,17.07
2018-09-06T01:27:50.640Z,21.23
2018-09-06T01:30:19.162Z,20.60
2018-09-06T01:32:47.935Z,18.20
2018-09-06T01:35:16.459Z,18.67
2018-09-06T01:37:44.991Z,16.57
2018-09-06T01:40:13.566Z,16.43
2018-09-06T01:42:42.014Z,22.33
2018-09-06T01:45:10.482Z,19.40
2018-09-06T01:47:38.995Z,19.77
2018-09-06T01:50:07.443Z,19.30
2018-09-06T01:52:35.966Z,23.10
2018-09-06T01:55:04.763Z,17.97
2018-09-06T01:57:33.314Z,18.63
2018-09-06T02:00:01.759Z,24.03
2018-09-06T02:02:30.290Z,19.00
2018-09-06T02:04:58.738Z,18.80
2018-09-06T02:07:27.166Z,16.63
2018-09-06T02:09:56.044Z,20.67
2018-09-06T02:12:24.562Z,21.20
2018-09-06T02:14:52.987Z,16.97
2018-09-06T02:17:21.584Z,24.37
2018-09-06T02:19:50.046Z,18.10
2018-09-06T02:22:18.560Z,19.20
2018-09-06T02:24:47.100Z,21.70
2018-09-06T02:27:15.594Z,20.07
2018-09-06T02:29:44.126Z,19.33
2018-09-06T02:32:12.667Z,19.43
2018-09-06T02:34:41.208Z,18.83
2018-09-06T02:37:09.686Z,18.57
2018-09-06T02:39:38.562Z,19.83
2018-09-06T02:42:07.118Z,18.80
2018-09-06T02:44:35.587Z,18.50
2018-09-06T02:47:04.234Z,20.07
2018-09-06T02:49:38.105Z,19.30
2018-09-06T02:52:06.759Z,16.63
2018-09-06T02:54:35.311Z,18.40
2018-09-06T02:57:03.902Z,19.07
2018-09-06T02:59:32.394Z,23.17
2018-09-06T03:02:01.142Z,19.83
2018-09-06T03:04:29.690Z,18.70
2018-09-06T03:06:58.167Z,23.97
2018-09-06T03:09:26.630Z,18.80
2018-09-06T03:12:02.736Z,18.20
2018-09-06T03:14:31.267Z,16.70
2018-09-06T03:17:00.053Z,19.33
2018-09-06T03:19:28.718Z,22.50
2018-09-06T03:21:57.231Z,17.50
2018-09-06T03:24:25.856Z,19.60
2018-09-06T03:26:54.337Z,19.37
2018-09-06T03:29:22.853Z,18.23
2018-09-06T03:31:51.323Z,15.97
2018-09-06T03:34:19.839Z,22.93
2018-09-06T03:36:48.274Z,18.03
2018-09-06T03:39:16.788Z,17.83
2018-09-06T03:41:45.530Z,17.93
2018-09-06T03:44:13.968Z,18.30
2018-09-06T03:46:42.491Z,17.43
2018-09-06T03:49:11.027Z,18.53
2018-09-06T03:51:39.542Z,20.63
2018-09-06T03:54:08.055Z,18.63
2018-09-06T03:56:36.707Z,26.87
2018-09-06T03:59:05.230Z,20.43
2018-09-06T04:01:33.747Z,19.03
2018-09-06T04:04:02.267Z,18.93
2018-09-06T04:06:30.738Z,24.37
2018-09-06T04:08:59.217Z,25.67
2018-09-06T04:11:27.874Z,20.57
2018-09-06T04:13:56.526Z,19.47
2018-09-06T04:16:25.020Z,20.80
2018-09-06T04:18:53.563Z,19.07
2018-09-06T04:21:22.206Z,18.90
2018-09-06T04:23:50.810Z,25.00
2018-09-06T04:26:19.411Z,19.40
2018-09-06T04:28:47.883Z,19.17
2018-09-06T04:31:16.374Z,20.03
2018-09-06T04:33:44.866Z,21.40
2018-09-06T04:36:13.329Z,20.40
2018-09-06T04:38:41.970Z,24.80
2018-09-06T04:41:10.720Z,21.53
2018-09-06T04:43:39.190Z,21.10
2018-09-06T04:46:07.635Z,20.50
2018-09-06T04:48:36.702Z,27.23
2018-09-06T04:51:05.141Z,30.10
2018-09-06T04:53:33.967Z,30.07
2018-09-06T04:56:02.840Z,19.73
2018-09-06T04:58:31.503Z,25.13
2018-09-06T05:00:59.927Z,18.77
2018-09-06T05:03:28.547Z,25.10
2018-09-06T05:05:57.019Z,19.97
2018-09-06T05:08:25.503Z,21.80
2018-09-06T05:10:54.038Z,21.43
2018-09-06T05:13:22.487Z,23.90
2018-09-06T05:15:50.938Z,25.20
2018-09-06T05:18:19.451Z,20.17
2018-09-06T05:20:47.942Z,19.77
2018-09-06T05:23:16.355Z,19.77
2018-09-06T05:25:45.038Z,18.37
2018-09-06T05:28:13.491Z,21.87
2018-09-06T05:30:41.990Z,19.83
2018-09-06T05:33:10.615Z,20.53
2018-09-06T05:35:39.146Z,22.80
2018-09-06T05:38:07.651Z,23.43
2018-09-06T05:40:36.411Z,23.43
2018-09-06T05:43:05.030Z,20.77
2018-09-06T05:45:33.526Z,32.80
2018-09-06T05:48:02.126Z,20.97
2018-09-06T05:50:31.482Z,23.70
2018-09-06T05:53:01.274Z,24.90
2018-09-06T05:55:29.760Z,22.10
2018-09-06T05:57:58.411Z,18.47
2018-09-06T06:00:32.170Z,20.97
2018-09-06T06:03:02.747Z,20.70
2018-09-06T06:05:31.288Z,21.63
2018-09-06T06:08:11.123Z,22.00
2018-09-06T06:10:39.847Z,23.53
2018-09-06T06:13:08.374Z,23.47
2018-09-06T06:15:37.442Z,37.87
2018-09-06T06:18:06.055Z,27.60
2018-09-06T06:20:34.605Z,23.13
2018-09-06T06:23:03.126Z,23.00
2018-09-06T06:25:31.695Z,34.77
2018-09-06T06:28:00.295Z,31.00
2018-09-06T06:30:28.774Z,26.00
2018-09-06T06:32:57.411Z,35.30
2018-09-06T06:35:26.086Z,26.77
2018-09-06T06:37:54.552Z,23.30
2018-09-06T06:40:23.509Z,28.13
2018-09-06T06:42:52.051Z,26.00
2018-09-06T06:45:20.466Z,21.47
2018-09-06T06:47:48.950Z,30.93
2018-09-06T06:50:17.454Z,36.43
2018-09-06T06:52:45.927Z,46.43
2018-09-06T06:55:14.698Z,54.80
2018-09-06T06:57:43.194Z,35.87
2018-09-06T07:00:11.771Z,37.13
2018-09-06T07:02:40.472Z,42.40
2018-09-06T07:05:09.161Z,49.67
2018-09-06T07:07:37.764Z,31.33
2018-09-06T07:10:06.590Z,40.90
2018-09-06T07:12:35.087Z,31.07
2018-09-06T07:15:03.615Z,30.83
2018-09-06T07:17:32.371Z,42.27
2018-09-06T07:20:00.875Z,28.20
2018-09-06T07:22:29.355Z,31.50
2018-09-06T07:24:58.154Z,33.80
2018-09-06T07:27:26.658Z,50.77
2018-09-06T07:29:55.167Z,46.43
2018-09-06T07:32:23.707Z,33.40
2018-09-06T07:34:52.267Z,43.63
2018-09-06T07:37:20.743Z,37.53
2018-09-06T07:39:49.238Z,50.40
2018-09-06T07:42:17.731Z,41.03
2018-09-06T07:44:46.171Z,48.03
2018-09-06T07:47:14.800Z,44.37
2018-09-06T07:49:43.363Z,44.10
2018-09-06T07:52:11.822Z,39.00
2018-09-06T07:54:40.346Z,41.77
2018-09-06T07:57:08.888Z,37.90
2018-09-06T07:59:37.390Z,52.17
2018-09-06T08:02:05.848Z,37.60
2018-09-06T08:04:34.254Z,47.07
2018-09-06T08:07:02.826Z,38.90
2018-09-06T08:09:31.394Z,36.77
2018-09-06T08:11:59.834Z,33.40
2018-09-06T08:14:28.255Z,38.73
2018-09-06T08:16:56.843Z,40.00
2018-09-06T08:19:25.502Z,32.03
2018-09-06T08:21:53.978Z,32.43
2018-09-06T08:24:22.689Z,35.80
2018-09-06T08:26:51.170Z,31.57
2018-09-06T08:29:19.596Z,32.87
2018-09-06T08:31:48.394Z,33.00
2018-09-06T08:34:16.842Z,28.60
2018-09-06T08:36:45.465Z,34.57
2018-09-06T08:39:14.235Z,39.70
2018-09-06T08:41:42.850Z,44.53
2018-09-06T08:44:11.314Z,51.77
2018-09-06T08:46:39.970Z,47.07
2018-09-06T08:49:08.404Z,55.70
2018-09-06T08:51:36.899Z,54.13
2018-09-06T08:54:05.614Z,48.27
2018-09-06T08:56:34.112Z,47.90
2018-09-06T08:59:02.610Z,51.57
2018-09-06T09:01:36.328Z,48.37
2018-09-06T09:04:04.807Z,47.00
2018-09-06T09:06:33.524Z,44.50
2018-09-06T09:09:02.093Z,45.07
2018-09-06T09:11:30.626Z,48.80
2018-09-06T09:13:59.054Z,48.80
2018-09-06T09:16:27.612Z,40.13
2018-09-06T09:18:56.207Z,48.33
2018-09-06T09:21:25.113Z,37.87
2018-09-06T09:23:53.863Z,44.50
2018-09-06T09:26:22.359Z,45.03
2018-09-06T09:28:50.895Z,38.67
2018-09-06T09:31:19.638Z,46.70
2018-09-06T09:33:48.343Z,45.37
2018-09-06T09:36:16.891Z,49.23
2018-09-06T09:38:45.572Z,38.57
2018-09-06T09:41:14.498Z,36.77
2018-09-06T09:43:42.999Z,32.27
2018-09-06T09:48:39.182Z,38.13
2018-09-06T09:51:07.656Z,30.03
2018-09-06T09:53:36.159Z,30.50
2018-09-06T09:56:04.717Z,28.47
2018-09-06T09:58:33.230Z,30.50
2018-09-06T10:01:01.735Z,28.83
2018-09-06T10:03:35.706Z,25.67
2018-09-06T10:06:09.759Z,26.33
2018-09-06T10:08:43.398Z,29.47
2018-09-06T10:11:12.218Z,27.23
2018-09-06T10:13:40.796Z,30.60
2018-09-06T10:16:09.379Z,26.80
2018-09-06T10:18:37.994Z,28.23
2018-09-06T10:21:06.902Z,32.67
2018-09-06T10:23:35.561Z,32.17
2018-09-06T10:26:04.066Z,23.80
2018-09-06T10:28:32.721Z,27.67
2018-09-06T10:31:01.579Z,32.80
2018-09-06T10:33:31.340Z,34.20
2018-09-06T10:35:59.831Z,38.40
2018-09-06T10:38:28.362Z,32.23
2018-09-06T10:40:56.883Z,24.37
2018-09-06T10:43:25.463Z,23.10
2018-09-06T10:45:53.943Z,23.97
2018-09-06T10:48:22.722Z,20.07
2018-09-06T10:50:51.231Z,22.63
2018-09-06T10:53:19.755Z,21.53
2018-09-06T10:55:48.307Z,24.67
2018-09-06T10:58:16.836Z,22.67
2018-09-06T11:00:45.328Z,21.90
2018-09-06T11:03:13.935Z,22.47
2018-09-06T11:05:42.382Z,24.17
2018-09-06T11:08:10.982Z,26.80
2018-09-06T11:10:39.664Z,29.20
2018-09-06T11:13:08.230Z,24.60
2018-09-06T11:15:36.940Z,27.50
2018-09-06T11:18:05.445Z,26.83
2018-09-06T11:20:33.995Z,31.30
2018-09-06T11:23:02.463Z,26.63
2018-09-06T11:25:30.979Z,23.37
2018-09-06T11:27:59.593Z,22.60
2018-09-06T11:30:28.083Z,24.00
2018-09-06T11:32:56.938Z,33.20
2018-09-06T11:35:25.477Z,25.63
2018-09-06T11:37:53.934Z,21.10
2018-09-06T11:40:22.689Z,23.80
2018-09-06T11:42:51.160Z,24.83
2018-09-06T11:45:19.612Z,20.37
2018-09-06T11:47:48.438Z,24.77
2018-09-06T11:50:16.868Z,21.10
2018-09-06T11:52:45.347Z,22.63
2018-09-06T11:55:14.087Z,22.50
2018-09-06T11:57:42.572Z,23.57
2018-09-06T12:00:11.132Z,19.93
2018-09-06T12:02:39.787Z,21.30
2018-09-06T12:05:08.337Z,23.73
2018-09-06T12:07:36.916Z,19.50
2018-09-06T12:10:05.763Z,20.07
2018-09-06T12:12:34.229Z,20.53
2018-09-06T12:15:02.638Z,21.27
2018-09-06T12:17:31.100Z,19.33
2018-09-06T12:19:59.893Z,21.63
2018-09-06T12:22:28.628Z,28.07
2018-09-06T12:24:57.504Z,17.37
2018-09-06T12:27:25.998Z,25.40
2018-09-06T12:29:54.592Z,21.53
2018-09-06T12:32:23.453Z,23.73
2018-09-06T12:34:52.107Z,21.30
2018-09-06T12:37:20.589Z,19.53
2018-09-06T12:39:49.238Z,20.77
2018-09-06T12:42:17.750Z,27.53
2018-09-06T12:44:46.307Z,23.83
2018-09-06T12:47:14.928Z,29.13
2018-09-06T12:49:43.450Z,22.03
2018-09-06T12:52:11.859Z,22.93
2018-09-06T12:54:40.359Z,18.73
2018-09-06T12:57:08.912Z,16.33
2018-09-06T12:59:37.474Z,13.73
2018-09-06T13:02:06.249Z,13.17
2018-09-06T13:04:34.737Z,13.33
2018-09-06T13:07:03.206Z,18.47
2018-09-06T13:09:31.810Z,24.97
2018-09-06T13:12:00.300Z,9.10
2018-09-06T13:14:29.052Z,20.93
2018-09-06T13:16:58.160Z,11.90
2018-09-06T13:19:26.743Z,10.87
2018-09-06T13:21:55.212Z,14.00
2018-09-06T13:24:23.787Z,12.23
2018-09-06T13:26:52.392Z,15.53
2018-09-06T13:29:20.883Z,15.67
2018-09-06T13:31:49.547Z,12.80
2018-09-06T13:34:18.178Z,8.90
2018-09-06T13:36:46.699Z,8.50
2018-09-06T13:39:15.702Z,10.17
2018-09-06T13:41:44.183Z,11.77
2018-09-06T13:44:12.759Z,11.57
2018-09-06T13:46:41.648Z,19.30
2018-09-06T13:49:10.155Z,11.50
2018-09-06T13:51:38.662Z,11.57
2018-09-06T13:54:07.321Z,14.93
2018-09-06T13:56:35.959Z,17.57
2018-09-06T13:59:04.479Z,22.90
2018-09-06T14:01:33.539Z,19.90
2018-09-06T14:04:02.179Z,27.43
2018-09-06T14:06:30.742Z,19.83
2018-09-06T14:08:59.632Z,25.43
2018-09-06T14:11:28.135Z,20.40
2018-09-06T14:13:56.566Z,24.87
2018-09-06T14:16:25.296Z,21.10
2018-09-06T14:18:53.799Z,24.00
2018-09-06T14:21:22.831Z,23.07
2018-09-06T14:23:51.667Z,22.73
2018-09-06T14:26:20.246Z,24.83
2018-09-06T14:28:48.787Z,20.37
2018-09-06T14:31:17.396Z,29.67
2018-09-06T14:33:45.950Z,29.23
2018-09-06T14:36:14.570Z,30.50
2018-09-06T14:38:43.239Z,30.73
2018-09-06T14:41:11.703Z,26.33
2018-09-06T14:43:40.247Z,35.53
2018-09-06T14:46:08.879Z,41.63
2018-09-06T14:48:37.372Z,35.80
2018-09-06T14:51:05.823Z,30.47
2018-09-06T14:53:34.351Z,36.13
2018-09-06T14:56:02.887Z,28.57
2018-09-06T14:58:31.397Z,44.77
2018-09-06T15:00:59.871Z,27.63
2018-09-06T15:03:28.479Z,30.90
2018-09-06T15:05:57.004Z,29.70
2018-09-06T15:08:25.732Z,31.70
2018-09-06T15:10:54.311Z,29.97
2018-09-06T15:13:22.833Z,33.47
2018-09-06T15:15:51.728Z,26.37
2018-09-06T15:18:20.153Z,26.57
2018-09-06T15:20:48.681Z,27.07
2018-09-06T15:23:17.523Z,28.37
2018-09-06T15:25:46.033Z,37.77
2018-09-06T15:28:14.579Z,30.57
2018-09-06T15:30:43.058Z,30.37
2018-09-06T15:33:11.495Z,29.33
2018-09-06T15:35:40.027Z,32.70
2018-09-06T15:38:08.675Z,37.10
2018-09-06T15:40:37.091Z,36.37
2018-09-06T15:43:05.595Z,32.70
2018-09-06T15:45:34.116Z,40.53
2018-09-06T15:48:02.563Z,43.90
2018-09-06T15:50:31.108Z,33.20
2018-09-06T15:52:59.699Z,38.97
2018-09-06T15:55:28.208Z,34.93
2018-09-06T15:57:56.805Z,37.67
2018-09-06T16:00:25.291Z,37.73
2018-09-06T16:02:53.715Z,33.60
2018-09-06T16:05:22.131Z,34.17
2018-09-06T16:07:51.480Z,34.37
2018-09-06T16:10:20.053Z,30.73
2018-09-06T16:12:48.614Z,34.20
2018-09-06T16:15:17.451Z,37.20
2018-09-06T16:17:45.939Z,28.57
2018-09-06T16:20:14.480Z,36.70
2018-09-06T16:22:43.475Z,33.37
2018-09-06T16:25:11.991Z,32.63
2018-09-06T16:27:40.487Z,35.00
2018-09-06T16:30:09.196Z,25.17
2018-09-06T16:32:37.773Z,26.97
2018-09-06T16:35:06.252Z,27.17
2018-09-06T16:37:34.773Z,28.53
2018-09-06T16:40:04.197Z,25.60
2018-09-06T16:42:32.983Z,25.30
2018-09-06T16:45:01.468Z,25.83
2018-09-06T16:47:29.970Z,26.40
2018-09-06T16:49:58.529Z,26.50
2018-09-06T16:52:27.231Z,27.13
2018-09-06T16:54:55.763Z,28.90
2018-09-06T16:57:24.479Z,26.23
2018-09-06T16:59:53.232Z,26.60
2018-09-06T17:02:21.690Z,27.57
2018-09-06T17:04:50.327Z,30.37
2018-09-06T17:07:18.882Z,36.43
2018-09-06T17:09:47.840Z,32.87
2018-09-06T17:12:16.410Z,29.93
2018-09-06T17:14:45.235Z,26.33
2018-09-06T17:17:14.067Z,23.13
2018-09-06T17:19:42.683Z,23.50
2018-09-06T17:22:11.233Z,22.50
2018-09-06T17:24:39.868Z,23.70
2018-09-06T17:27:09.130Z,21.73
2018-09-06T17:29:37.706Z,30.70
2018-09-06T17:32:06.563Z,24.07
2018-09-06T17:34:34.939Z,20.77
2018-09-06T17:37:03.774Z,23.70
2018-09-06T17:39:32.370Z,21.93
2018-09-06T17:42:00.882Z,20.40
2018-09-06T17:44:29.655Z,22.00
2018-09-06T17:46:58.279Z,21.40
2018-09-06T17:49:26.825Z,20.67
2018-09-06T17:51:55.551Z,22.47
2018-09-06T17:54:24.086Z,23.27
2018-09-06T17:56:52.575Z,22.27
2018-09-06T17:59:21.081Z,21.77
2018-09-06T18:01:49.599Z,33.43
2018-09-06T18:04:18.184Z,22.07
2018-09-06T18:06:46.920Z,24.90
2018-09-06T18:09:15.506Z,24.60
2018-09-06T18:11:44.531Z,25.17
2018-09-06T18:14:13.228Z,31.00
2018-09-06T18:16:41.816Z,35.93
2018-09-06T18:19:11.449Z,32.77
2018-09-06T18:21:40.308Z,33.30
2018-09-06T18:24:08.801Z,29.60
2018-09-06T18:26:37.523Z,36.00
2018-09-06T18:29:06.147Z,42.47
2018-09-06T18:31:34.931Z,28.47
2018-09-06T18:34:03.564Z,31.17
2018-09-06T18:36:32.182Z,29.13
2018-09-06T18:39:00.844Z,29.60
2018-09-06T18:41:29.440Z,29.00
2018-09-06T18:43:58.514Z,31.63
2018-09-06T18:46:27.019Z,32.37
2018-09-06T18:48:56.192Z,29.97
2018-09-06T18:51:24.697Z,30.20
2018-09-06T18:53:53.302Z,35.53
2018-09-06T18:56:21.749Z,38.13
2018-09-06T18:58:50.591Z,32.07
2018-09-06T19:01:23.272Z,33.17
2018-09-06T19:03:52.138Z,35.90
2018-09-06T19:06:20.611Z,43.43
2018-09-06T19:08:49.303Z,37.13
2018-09-06T19:11:17.989Z,46.27
2018-09-06T19:13:46.559Z,42.30
2018-09-06T19:16:15.071Z,38.50
2018-09-06T19:18:43.808Z,44.43
2018-09-06T19:21:12.511Z,40.83
2018-09-06T19:23:41.051Z,45.60
2018-09-06T19:26:09.907Z,44.63
2018-09-06T19:28:38.447Z,40.83
2018-09-06T19:31:06.936Z,44.77
2018-09-06T19:33:35.813Z,43.00
2018-09-06T19:36:04.834Z,44.73
2018-09-06T19:38:33.456Z,47.53
2018-09-06T19:41:02.137Z,43.53
2018-09-06T19:43:30.714Z,47.23
2018-09-06T19:45:59.207Z,50.20
2018-09-06T19:48:27.772Z,57.43
2018-09-06T19:50:56.268Z,46.27
2018-09-06T19:53:24.819Z,54.73
2018-09-06T19:55:53.922Z,47.73
2018-09-06T19:58:22.387Z,47.30
2018-09-06T20:00:51.215Z,48.47
2018-09-06T20:03:19.771Z,42.37
2018-09-06T20:05:48.320Z,49.43
2018-09-06T20:08:16.788Z,45.90
2018-09-06T20:10:45.311Z,48.37
2018-09-06T20:13:13.854Z,40.10
2018-09-06T20:15:42.391Z,50.70
2018-09-06T20:18:11.150Z,45.43
2018-09-06T20:20:39.659Z,46.80
2018-09-06T20:23:08.175Z,47.77
2018-09-06T20:25:37.306Z,46.23
2018-09-06T20:28:06.259Z,43.40
2018-09-06T20:30:34.695Z,46.77
2018-09-06T20:33:03.631Z,47.33
2018-09-06T20:35:32.422Z,55.23
2018-09-06T20:38:01.791Z,42.30
2018-09-06T20:40:30.447Z,46.67
2018-09-06T20:42:59.009Z,47.83
2018-09-06T20:45:27.523Z,44.57
2018-09-06T20:47:56.073Z,34.00
2018-09-06T20:50:24.551Z,37.27
2018-09-06T20:52:53.046Z,35.50
2018-09-06T20:55:21.714Z,34.80
2018-09-06T20:57:50.146Z,30.67
2018-09-06T21:00:18.622Z,28.53
2018-09-06T21:02:47.180Z,31.37
2018-09-06T21:05:15.940Z,37.60
2018-09-06T21:07:44.555Z,26.23
2018-09-06T21:10:13.087Z,25.50
2018-09-06T21:12:41.528Z,27.47
2018-09-06T21:15:10.112Z,29.23
2018-09-06T21:17:38.607Z,29.60
2018-09-06T21:20:07.370Z,32.20
2018-09-06T21:22:35.911Z,27.13
2018-09-06T21:25:04.414Z,31.20
2018-09-06T21:27:32.911Z,28.40
2018-09-06T21:30:01.398Z,31.27
2018-09-06T21:32:29.882Z,25.30
2018-09-06T21:34:58.346Z,25.80
2018-09-06T21:37:26.855Z,28.40
2018-09-06T21:39:55.443Z,35.00
2018-09-06T21:42:23.974Z,32.60
2018-09-06T21:44:52.444Z,26.93
2018-09-06T21:47:21.055Z,30.10
2018-09-06T21:49:49.558Z,28.30
2018-09-06T21:52:18.055Z,36.23
2018-09-06T21:54:46.638Z,31.90
2018-09-06T21:57:15.227Z,30.63
2018-09-06T21:59:43.722Z,31.67
2018-09-06T22:03:17.527Z,36.40
2018-09-06T22:05:46.076Z,31.13
2018-09-06T22:08:14.559Z,37.53
2018-09-06T22:10:43.102Z,34.87
2018-09-06T22:13:11.649Z,41.10
2018-09-06T22:15:40.144Z,38.70
2018-09-06T22:18:08.991Z,28.60
2018-09-06T22:20:37.418Z,33.93
2018-09-06T22:23:06.230Z,31.20
2018-09-06T22:25:34.883Z,30.07
2018-09-06T22:28:03.291Z,37.63
2018-09-06T22:30:31.800Z,35.43
2018-09-06T22:33:00.630Z,27.30
2018-09-06T22:35:29.083Z,28.07
2018-09-06T22:37:57.714Z,28.20
2018-09-06T22:40:26.307Z,35.20
2018-09-06T22:42:54.742Z,35.27
2018-09-06T22:45:23.411Z,33.80
2018-09-06T22:47:52.043Z,45.47
2018-09-06T22:50:20.519Z,48.90
2018-09-06T22:52:48.999Z,40.17
2018-09-06T22:55:17.728Z,38.60
2018-09-06T22:57:46.167Z,41.93
2018-09-06T23:00:15.742Z,37.10
2018-09-06T23:02:49.585Z,47.60
2018-09-06T23:05:18.118Z,46.17
2018-09-06T23:07:46.531Z,49.03
2018-09-06T23:10:15.201Z,49.47
2018-09-06T23:12:43.706Z,52.80
2018-09-06T23:15:12.170Z,53.10
2018-09-06T23:17:40.714Z,49.33
2018-09-06T23:20:09.175Z,57.93
2018-09-06T23:22:38.813Z,59.60
2018-09-06T23:25:08.751Z,65.73
2018-09-06T23:27:37.227Z,59.60
2018-09-06T23:30:06.342Z,58.33
2018-09-06T23:32:35.187Z,62.33
2018-09-06T23:35:03.679Z,70.40
2018-09-06T23:37:32.242Z,70.30
2018-09-06T23:40:00.782Z,70.13
2018-09-06T23:42:29.255Z,70.47
2018-09-06T23:44:57.694Z,73.60
2018-09-06T23:47:26.400Z,61.33
2018-09-06T23:49:54.856Z,62.57
2018-09-06T23:52:23.259Z,65.13
2018-09-06T23:54:51.813Z,63.37
2018-09-06T23:57:20.247Z,59.63
2018-09-06T23:59:48.777Z,61.40
